Black Brook, Wisconsin
Current Conditions -  °F | °C
As of 10:15 PM on Saturday 25 Oct 2014 (Local Time) from KRNH Reporting Station
Clear Clear  
Wind Chill: 39°   Ceiling: Unl
Heat Index: 43°   Visibility: 10mi
Dew Point: 28°   Wind: 7mph
Humidity: 54%   Direction: 290°WNW
Pressure: 30.04"   Gusts: NA
Location:  45.2417°N, 92.2543°W
Report Text: KRNH 260315Z AUTO 29006KT 10SM CLR 06/M02 A3004 RMK AO2 T00631025
Loading
Personal Weather Stations






























Interactive Weather Map
Tropical Storm Tracking
New forecast layout! Learn more

10-Day Weather Forecast

Advertisements
Track Severe Weather on mobile